createdAt,value
2023-03-17T00:01:51.308Z,92.20
2023-03-17T00:04:19.540Z,92.40
2023-03-17T00:06:47.612Z,92.40
2023-03-17T00:09:17.437Z,92.40
2023-03-17T00:11:45.639Z,92.30
2023-03-17T00:14:12.896Z,92.20
2023-03-17T00:16:45.568Z,92.40
2023-03-17T00:19:32.387Z,92.40
2023-03-17T00:22:00.966Z,92.20
2023-03-17T00:24:28.582Z,92.20
2023-03-17T00:26:55.678Z,92.40
2023-03-17T00:29:24.295Z,92.50
2023-03-17T00:31:51.288Z,92.50
2023-03-17T00:34:19.574Z,92.40
2023-03-17T00:36:51.197Z,92.40
2023-03-17T00:39:18.842Z,92.40
2023-03-17T00:44:13.156Z,92.40
2023-03-17T00:46:41.530Z,92.40
2023-03-17T00:51:47.337Z,92.20
2023-03-17T00:54:14.530Z,92.30
2023-03-17T00:56:42.379Z,92.20
2023-03-17T00:59:19.452Z,92.20
2023-03-17T01:01:47.625Z,92.30
2023-03-17T01:04:15.693Z,92.30
2023-03-17T01:06:43.367Z,92.20
2023-03-17T01:09:16.375Z,92.00
2023-03-17T01:11:44.178Z,91.90
2023-03-17T01:14:12.541Z,92.00
2023-03-17T01:16:39.722Z,91.90
2023-03-17T01:19:06.884Z,91.80
2023-03-17T01:21:33.678Z,92.00
2023-03-17T01:24:00.580Z,92.00
2023-03-17T01:26:27.523Z,91.70
2023-03-17T01:28:54.788Z,91.90
2023-03-17T01:31:23.551Z,91.70
2023-03-17T01:33:51.317Z,91.60
2023-03-17T01:36:18.414Z,91.60
2023-03-17T01:38:48.184Z,91.70
2023-03-17T01:41:15.172Z,91.70
2023-03-17T01:43:42.606Z,91.70
2023-03-17T01:46:29.373Z,91.80
2023-03-17T01:49:09.454Z,91.80
2023-03-17T01:52:01.930Z,91.70
2023-03-17T01:54:50.447Z,91.70
2023-03-17T01:57:26.681Z,91.90
2023-03-17T01:59:58.400Z,91.90
2023-03-17T02:02:31.935Z,91.90
2023-03-17T02:04:59.460Z,92.00
2023-03-17T02:07:28.060Z,91.80
2023-03-17T02:09:57.102Z,91.70
2023-03-17T02:12:25.696Z,91.60
2023-03-17T02:14:52.916Z,91.90
2023-03-17T02:17:22.150Z,91.80
2023-03-17T02:19:49.668Z,91.80
2023-03-17T02:22:20.328Z,91.80
2023-03-17T02:24:58.321Z,91.80
2023-03-17T02:27:34.837Z,91.70
2023-03-17T02:30:02.544Z,91.50
2023-03-17T02:32:29.487Z,91.60
2023-03-17T02:34:56.303Z,91.70
2023-03-17T02:37:23.660Z,91.60
2023-03-17T02:39:50.515Z,91.80
2023-03-17T02:42:17.839Z,91.80
2023-03-17T02:44:45.486Z,91.90
2023-03-17T02:47:13.231Z,91.80
2023-03-17T02:49:41.639Z,92.10
2023-03-17T02:52:09.353Z,91.70
2023-03-17T02:54:36.649Z,91.70
2023-03-17T02:57:03.425Z,91.80
2023-03-17T02:59:30.247Z,91.70
2023-03-17T03:01:57.276Z,91.60
2023-03-17T03:04:24.477Z,91.90
2023-03-17T03:06:51.368Z,91.90
2023-03-17T03:09:18.216Z,91.80
2023-03-17T03:11:45.219Z,91.70
2023-03-17T03:14:12.084Z,91.60
2023-03-17T03:16:39.273Z,91.60
2023-03-17T03:19:07.847Z,91.70
2023-03-17T03:21:34.995Z,91.70
2023-03-17T03:24:02.240Z,91.80
2023-03-17T03:26:29.402Z,91.80
2023-03-17T03:28:58.493Z,91.80
2023-03-17T03:31:26.226Z,91.80
2023-03-17T03:33:53.279Z,91.70
2023-03-17T03:36:20.441Z,92.20
2023-03-17T03:38:47.319Z,91.80
2023-03-17T03:41:14.321Z,91.70
2023-03-17T03:43:41.442Z,91.70
2023-03-17T03:46:08.513Z,91.80
2023-03-17T03:48:35.438Z,91.70
2023-03-17T03:51:03.193Z,91.60
2023-03-17T03:53:30.241Z,91.80
2023-03-17T03:55:57.149Z,91.90
2023-03-17T03:58:23.883Z,91.90
2023-03-17T04:00:51.206Z,91.90
2023-03-17T04:03:18.010Z,91.70
2023-03-17T04:05:44.835Z,91.90
2023-03-17T04:08:11.679Z,91.80
2023-03-17T04:10:38.532Z,91.70
2023-03-17T04:13:05.482Z,91.80
2023-03-17T04:15:32.269Z,91.80
2023-03-17T04:17:59.061Z,91.80
2023-03-17T04:20:26.053Z,92.00
2023-03-17T04:22:52.843Z,92.10
2023-03-17T04:25:19.746Z,92.30
2023-03-17T04:27:46.697Z,92.30
2023-03-17T04:30:14.640Z,92.70
2023-03-17T04:32:42.026Z,92.70
2023-03-17T04:35:12.978Z,92.70
2023-03-17T04:37:39.887Z,92.70
2023-03-17T04:40:10.063Z,92.60
2023-03-17T04:42:37.770Z,92.50
2023-03-17T04:45:06.473Z,92.40
2023-03-17T04:47:33.693Z,92.30
2023-03-17T04:50:00.496Z,92.50
2023-03-17T04:52:27.537Z,92.90
2023-03-17T04:54:54.320Z,92.40
2023-03-17T04:57:21.312Z,92.30
2023-03-17T04:59:48.127Z,92.30
2023-03-17T05:02:14.918Z,92.40
2023-03-17T05:04:42.211Z,92.30
2023-03-17T05:07:09.023Z,92.50
2023-03-17T05:09:35.889Z,92.50
2023-03-17T05:12:02.776Z,92.40
2023-03-17T05:14:29.548Z,92.60
2023-03-17T05:16:56.338Z,92.60
2023-03-17T05:19:23.206Z,92.70
2023-03-17T05:21:49.970Z,92.90
2023-03-17T05:24:16.829Z,92.90
2023-03-17T05:26:44.644Z,93.00
2023-03-17T05:29:11.477Z,93.40
2023-03-17T05:31:38.562Z,93.10
2023-03-17T05:34:05.739Z,93.30
2023-03-17T05:36:34.127Z,93.20
2023-03-17T05:39:00.958Z,93.20
2023-03-17T05:41:28.387Z,93.20
2023-03-17T05:43:55.960Z,93.30
2023-03-17T05:46:22.902Z,93.40
2023-03-17T05:48:49.684Z,93.50
2023-03-17T05:51:16.715Z,93.80
2023-03-17T05:53:43.890Z,93.70
2023-03-17T05:56:10.668Z,93.80
2023-03-17T05:58:37.524Z,93.80
2023-03-17T06:01:04.458Z,93.90
2023-03-17T06:03:31.479Z,93.80
2023-03-17T06:05:58.309Z,93.90
2023-03-17T06:08:25.323Z,93.90
2023-03-17T06:10:52.247Z,94.00
2023-03-17T06:13:19.033Z,94.00
2023-03-17T06:15:48.582Z,94.00
2023-03-17T06:18:15.518Z,94.00
2023-03-17T06:20:42.303Z,94.00
2023-03-17T06:23:09.095Z,94.00
2023-03-17T06:25:36.093Z,94.00
2023-03-17T06:28:05.508Z,94.00
2023-03-17T06:30:33.959Z,93.90
2023-03-17T06:33:01.688Z,93.90
2023-03-17T06:35:29.765Z,93.90
2023-03-17T06:37:56.859Z,93.80
2023-03-17T06:40:23.746Z,93.60
2023-03-17T06:42:51.103Z,93.50
2023-03-17T06:45:18.301Z,93.80
2023-03-17T06:47:45.093Z,93.50
2023-03-17T06:50:12.746Z,93.60
2023-03-17T06:52:40.237Z,93.70
2023-03-17T06:55:08.655Z,93.60
2023-03-17T06:57:36.586Z,93.70
2023-03-17T07:00:06.434Z,93.70
2023-03-17T07:02:34.273Z,93.80
2023-03-17T07:05:01.460Z,93.70
2023-03-17T07:07:28.532Z,93.60
2023-03-17T07:09:55.362Z,93.40
2023-03-17T07:12:23.060Z,93.50
2023-03-17T07:14:50.397Z,93.60
2023-03-17T07:17:17.256Z,93.60
2023-03-17T07:19:44.798Z,93.80
2023-03-17T07:22:14.701Z,93.80
2023-03-17T07:24:43.217Z,93.90
2023-03-17T07:27:10.751Z,94.00
2023-03-17T07:29:37.635Z,94.30
2023-03-17T07:32:07.090Z,94.00
2023-03-17T07:34:34.592Z,94.10
2023-03-17T07:37:01.884Z,94.10
2023-03-17T07:39:28.765Z,94.30
2023-03-17T07:41:55.669Z,94.40
2023-03-17T07:44:23.131Z,94.40
2023-03-17T07:46:50.791Z,94.50
2023-03-17T07:49:27.638Z,94.50
2023-03-17T07:52:01.110Z,94.60
2023-03-17T07:54:29.203Z,94.60
2023-03-17T07:56:57.008Z,94.60
2023-03-17T07:59:24.092Z,94.60
2023-03-17T08:01:50.999Z,94.50
2023-03-17T08:04:17.955Z,94.30
2023-03-17T08:06:46.502Z,94.50
2023-03-17T08:09:13.490Z,94.00
2023-03-17T08:11:40.710Z,94.00
2023-03-17T08:14:08.043Z,94.00
2023-03-17T08:16:34.912Z,93.70
2023-03-17T08:19:03.922Z,93.30
2023-03-17T08:21:31.036Z,92.80
2023-03-17T08:23:57.823Z,92.50
2023-03-17T08:26:25.553Z,92.60
2023-03-17T08:28:52.574Z,92.50
2023-03-17T08:31:21.643Z,92.40
2023-03-17T08:33:53.513Z,92.20
2023-03-17T08:36:21.581Z,91.80
2023-03-17T08:38:48.494Z,91.50
2023-03-17T08:41:18.810Z,91.20
2023-03-17T08:43:46.108Z,90.90
2023-03-17T08:46:36.090Z,90.20
2023-03-17T08:49:03.424Z,90.20
2023-03-17T08:51:34.416Z,90.00
2023-03-17T08:54:02.048Z,89.50
2023-03-17T08:56:29.038Z,88.70
2023-03-17T08:58:56.034Z,88.70
2023-03-17T09:01:24.422Z,88.40
2023-03-17T09:03:53.473Z,87.90
2023-03-17T09:06:21.397Z,87.50
2023-03-17T09:08:55.019Z,87.30
2023-03-17T09:11:24.931Z,87.00
2023-03-17T09:13:52.085Z,86.50
2023-03-17T09:16:19.270Z,86.40
2023-03-17T09:18:46.818Z,85.40
2023-03-17T09:21:14.941Z,85.90
2023-03-17T09:23:42.322Z,85.50
2023-03-17T09:26:10.231Z,84.80
2023-03-17T09:28:37.333Z,85.20
2023-03-17T09:31:07.844Z,84.80
2023-03-17T09:33:35.028Z,84.30
2023-03-17T09:36:02.165Z,84.20
2023-03-17T09:38:29.239Z,84.10
2023-03-17T09:41:05.204Z,83.80
2023-03-17T09:43:48.297Z,83.40
2023-03-17T09:46:39.344Z,83.00
2023-03-17T09:49:11.967Z,82.40
2023-03-17T09:51:39.391Z,82.70
2023-03-17T09:54:21.913Z,83.30
2023-03-17T09:56:54.875Z,82.90
2023-03-17T09:59:33.243Z,82.80
2023-03-17T10:02:00.233Z,82.10
2023-03-17T10:04:27.691Z,82.30
2023-03-17T10:07:02.203Z,81.90
2023-03-17T10:10:01.519Z,82.40
2023-03-17T10:13:03.353Z,82.50
2023-03-17T10:15:57.996Z,82.00
2023-03-17T10:18:29.885Z,81.50
2023-03-17T10:21:03.580Z,80.80
2023-03-17T10:23:33.179Z,80.90
2023-03-17T10:26:08.443Z,81.40
2023-03-17T10:28:36.541Z,80.80
2023-03-17T10:31:15.580Z,80.60
2023-03-17T10:33:43.885Z,79.80
2023-03-17T10:36:14.597Z,79.50
2023-03-17T10:38:41.447Z,78.30
2023-03-17T10:41:13.625Z,79.00
2023-03-17T10:43:53.649Z,80.10
2023-03-17T10:46:24.437Z,79.10
2023-03-17T10:48:57.663Z,79.70
2023-03-17T10:51:32.994Z,80.00
2023-03-17T10:54:02.080Z,79.50
2023-03-17T10:56:34.444Z,79.30
2023-03-17T10:59:07.299Z,79.20
2023-03-17T11:01:40.158Z,79.10
2023-03-17T11:04:27.501Z,79.20
2023-03-17T11:06:58.426Z,79.80
2023-03-17T11:09:28.124Z,79.80
2023-03-17T11:12:19.066Z,80.00
2023-03-17T11:14:48.188Z,80.20
2023-03-17T11:17:26.073Z,80.00
2023-03-17T11:20:09.566Z,79.90
2023-03-17T11:22:43.129Z,79.40
2023-03-17T11:25:19.690Z,80.30
2023-03-17T11:27:58.749Z,80.50
2023-03-17T11:30:30.765Z,79.80
2023-03-17T11:33:16.119Z,80.00
2023-03-17T11:36:23.407Z,80.20
2023-03-17T11:39:18.960Z,80.40
2023-03-17T11:42:06.010Z,79.70
2023-03-17T11:44:41.654Z,79.30
2023-03-17T11:47:46.995Z,79.10
2023-03-17T11:50:16.687Z,77.80
2023-03-17T11:53:12.137Z,77.40
2023-03-17T11:55:47.112Z,77.10
2023-03-17T11:58:37.076Z,77.00
2023-03-17T12:01:10.358Z,77.80
2023-03-17T12:04:03.172Z,78.10
2023-03-17T12:06:34.494Z,77.80
2023-03-17T12:09:14.375Z,77.50
2023-03-17T12:11:44.754Z,77.70
2023-03-17T12:14:39.950Z,77.00
2023-03-17T12:17:25.796Z,76.90
2023-03-17T12:20:07.132Z,77.70
2023-03-17T12:22:44.074Z,77.10
2023-03-17T12:25:21.425Z,77.40
2023-03-17T12:28:16.116Z,76.90
2023-03-17T12:31:06.902Z,77.60
2023-03-17T12:33:53.601Z,76.80
2023-03-17T12:36:21.930Z,76.20
2023-03-17T12:38:56.951Z,75.90
2023-03-17T12:41:34.865Z,75.70
2023-03-17T12:44:23.877Z,76.00
2023-03-17T12:47:17.228Z,76.20
2023-03-17T12:49:56.094Z,75.20
2023-03-17T12:52:30.409Z,75.30
2023-03-17T12:55:01.378Z,74.00
2023-03-17T12:57:37.565Z,74.30
2023-03-17T13:00:15.408Z,74.10
2023-03-17T13:02:49.602Z,73.80
2023-03-17T13:05:27.608Z,73.80
2023-03-17T13:07:59.721Z,73.10
2023-03-17T13:10:35.588Z,73.60
2023-03-17T13:13:14.095Z,73.00
2023-03-17T13:15:40.931Z,72.70
2023-03-17T13:18:17.014Z,72.50
2023-03-17T13:21:10.389Z,72.40
2023-03-17T13:23:57.830Z,72.90
2023-03-17T13:26:53.638Z,72.20
2023-03-17T13:29:40.960Z,72.70
2023-03-17T13:32:32.140Z,71.70
2023-03-17T13:35:02.216Z,72.00
2023-03-17T13:37:40.410Z,72.10
2023-03-17T13:40:13.612Z,72.00
2023-03-17T13:43:01.400Z,72.30
2023-03-17T13:45:44.588Z,71.90
2023-03-17T13:48:33.671Z,71.80
2023-03-17T13:51:22.681Z,70.80
2023-03-17T13:53:57.655Z,71.00
2023-03-17T13:56:45.314Z,70.70
2023-03-17T13:59:15.546Z,70.20
2023-03-17T14:01:57.766Z,70.50
2023-03-17T14:04:35.759Z,70.60
2023-03-17T14:07:10.177Z,70.50
2023-03-17T14:09:42.166Z,69.90
2023-03-17T14:12:40.413Z,70.00
2023-03-17T14:15:35.003Z,69.70
2023-03-17T14:18:14.291Z,69.80
2023-03-17T14:20:51.826Z,69.80
2023-03-17T14:23:18.618Z,69.50
2023-03-17T14:25:45.466Z,69.30
2023-03-17T14:28:16.705Z,68.40
2023-03-17T14:30:52.787Z,68.70
2023-03-17T14:33:31.102Z,68.50
2023-03-17T14:36:00.777Z,68.10
2023-03-17T14:38:27.539Z,68.00
2023-03-17T14:41:16.510Z,68.20
2023-03-17T14:43:44.364Z,67.80
2023-03-17T14:46:17.642Z,68.40
2023-03-17T14:48:48.850Z,67.80
2023-03-17T14:51:30.517Z,68.10
2023-03-17T14:54:00.975Z,67.60
2023-03-17T14:56:35.358Z,67.50
2023-03-17T14:59:32.031Z,67.80
2023-03-17T15:02:02.057Z,67.80
2023-03-17T15:04:31.618Z,67.40
2023-03-17T15:07:04.628Z,66.90
2023-03-17T15:09:34.391Z,67.30
2023-03-17T15:12:18.568Z,66.90
2023-03-17T15:14:46.623Z,66.80
2023-03-17T15:17:28.795Z,67.00
2023-03-17T15:20:02.009Z,66.90
2023-03-17T15:22:34.618Z,66.90
2023-03-17T15:25:02.707Z,67.10
2023-03-17T15:27:31.238Z,67.20
2023-03-17T15:29:58.466Z,66.80
2023-03-17T15:32:27.675Z,66.80
2023-03-17T15:34:59.327Z,66.30
2023-03-17T15:37:28.984Z,66.60
2023-03-17T15:39:57.126Z,66.60
2023-03-17T15:42:29.053Z,66.50
2023-03-17T15:44:56.303Z,66.60
2023-03-17T15:47:27.061Z,66.50
2023-03-17T15:49:58.128Z,66.70
2023-03-17T15:52:26.824Z,66.80
2023-03-17T15:54:55.895Z,67.00
2023-03-17T15:57:23.147Z,66.80
2023-03-17T15:59:50.590Z,66.80
2023-03-17T16:02:31.886Z,66.60
2023-03-17T16:05:02.171Z,66.50
2023-03-17T16:07:31.016Z,66.50
2023-03-17T16:09:58.052Z,67.00
2023-03-17T16:12:25.264Z,67.00
2023-03-17T16:14:51.991Z,66.70
2023-03-17T16:17:29.049Z,66.40
2023-03-17T16:19:59.894Z,66.50
2023-03-17T16:22:42.075Z,66.50
2023-03-17T16:25:29.388Z,67.10
2023-03-17T16:27:58.599Z,66.70
2023-03-17T16:30:34.437Z,66.70
2023-03-17T16:33:08.811Z,66.40
2023-03-17T16:35:35.861Z,66.90
2023-03-17T16:38:02.635Z,66.40
2023-03-17T16:40:35.622Z,66.60
2023-03-17T16:43:24.526Z,66.00
2023-03-17T16:45:54.635Z,66.00
2023-03-17T16:48:21.547Z,66.20
2023-03-17T16:50:49.034Z,65.90
2023-03-17T16:53:15.789Z,65.90
2023-03-17T16:55:43.739Z,66.00
2023-03-17T16:58:29.154Z,66.00
2023-03-17T17:00:59.989Z,66.00
2023-03-17T17:03:27.563Z,66.20
2023-03-17T17:05:54.416Z,66.30
2023-03-17T17:08:22.232Z,66.20
2023-03-17T17:10:49.148Z,66.30
2023-03-17T17:13:16.174Z,66.50
2023-03-17T17:15:43.481Z,66.40
2023-03-17T17:18:17.165Z,66.60
2023-03-17T17:20:45.285Z,66.70
2023-03-17T17:23:15.350Z,67.00
2023-03-17T17:25:43.096Z,67.40
2023-03-17T17:28:11.261Z,67.70
2023-03-17T17:30:38.241Z,68.00
2023-03-17T17:33:05.660Z,68.40
2023-03-17T17:35:33.264Z,69.10
2023-03-17T17:38:04.081Z,69.10
2023-03-17T17:40:32.040Z,69.30
2023-03-17T17:42:59.238Z,69.40
2023-03-17T17:45:26.268Z,69.60
2023-03-17T17:47:53.061Z,69.60
2023-03-17T17:50:26.234Z,69.70
2023-03-17T17:52:53.241Z,69.70
2023-03-17T17:55:20.694Z,69.60
2023-03-17T17:57:47.552Z,69.80
2023-03-17T18:00:17.242Z,69.70
2023-03-17T18:02:44.875Z,69.90
2023-03-17T18:05:12.428Z,70.10
2023-03-17T18:07:40.076Z,70.20
2023-03-17T18:10:08.164Z,70.10
2023-03-17T18:12:34.974Z,70.10
2023-03-17T18:15:01.779Z,70.00
2023-03-17T18:17:30.669Z,70.10
2023-03-17T18:19:59.177Z,70.20
2023-03-17T18:22:25.949Z,70.00
2023-03-17T18:24:53.223Z,70.10
2023-03-17T18:27:19.988Z,69.90
2023-03-17T18:29:47.337Z,70.20
2023-03-17T18:32:14.224Z,70.50
2023-03-17T18:34:45.141Z,70.20
2023-03-17T18:37:17.500Z,71.30
2023-03-17T18:39:48.458Z,71.50
2023-03-17T18:42:19.819Z,71.50
2023-03-17T18:44:46.604Z,71.60
2023-03-17T18:47:15.901Z,71.80
2023-03-17T18:49:45.442Z,71.70
2023-03-17T18:52:13.582Z,71.90
2023-03-17T18:54:40.400Z,72.30
2023-03-17T18:57:07.156Z,71.50
2023-03-17T18:59:34.438Z,71.70
2023-03-17T19:02:01.182Z,71.70
2023-03-17T19:04:28.015Z,71.80
2023-03-17T19:06:55.975Z,71.70
2023-03-17T19:09:22.810Z,71.70
2023-03-17T19:11:49.550Z,71.60
2023-03-17T19:14:16.374Z,71.70
2023-03-17T19:16:43.259Z,71.80
2023-03-17T19:19:10.039Z,71.80
2023-03-17T19:21:37.439Z,72.00
2023-03-17T19:24:04.969Z,71.80
2023-03-17T19:26:33.455Z,71.70
2023-03-17T19:29:00.510Z,71.90
2023-03-17T19:31:27.380Z,71.80
2023-03-17T19:33:55.468Z,72.00
2023-03-17T19:36:22.300Z,71.90
2023-03-17T19:38:50.100Z,72.00
2023-03-17T19:41:17.861Z,71.90
2023-03-17T19:43:44.865Z,72.00
2023-03-17T19:46:12.470Z,72.20
2023-03-17T19:48:39.784Z,72.20
2023-03-17T19:51:06.899Z,72.20
2023-03-17T19:53:34.203Z,72.30
2023-03-17T19:56:01.197Z,72.10
2023-03-17T19:58:28.035Z,72.20
2023-03-17T20:00:54.916Z,72.40
2023-03-17T20:03:23.134Z,72.60
2023-03-17T20:05:54.041Z,72.60
2023-03-17T20:08:22.414Z,72.50
2023-03-17T20:10:53.953Z,72.60
2023-03-17T20:13:22.005Z,72.70
2023-03-17T20:15:50.180Z,72.60
2023-03-17T20:18:18.701Z,72.70
2023-03-17T20:20:51.093Z,72.80
2023-03-17T20:23:18.113Z,72.80
2023-03-17T20:25:45.431Z,72.60
2023-03-17T20:28:12.799Z,72.90
2023-03-17T20:30:40.078Z,72.80
2023-03-17T20:33:08.236Z,72.70
2023-03-17T20:35:35.522Z,72.70
2023-03-17T20:38:02.793Z,72.60
2023-03-17T20:40:29.821Z,72.60
2023-03-17T20:42:57.153Z,72.70
2023-03-17T20:45:24.465Z,72.60
2023-03-17T20:47:51.475Z,72.30
2023-03-17T20:50:18.307Z,72.30
2023-03-17T20:52:45.215Z,72.40
2023-03-17T20:55:15.149Z,72.30
2023-03-17T20:57:43.094Z,72.40
2023-03-17T21:00:16.323Z,72.80
2023-03-17T21:02:43.726Z,72.60
2023-03-17T21:05:15.437Z,72.90
2023-03-17T21:07:42.310Z,72.70
2023-03-17T21:10:09.794Z,72.70
2023-03-17T21:12:36.541Z,72.70
2023-03-17T21:15:03.618Z,72.70
2023-03-17T21:17:30.802Z,73.00
2023-03-17T21:19:57.608Z,72.70
2023-03-17T21:22:24.703Z,73.60
2023-03-17T21:24:52.063Z,72.70
2023-03-17T21:27:19.258Z,72.60
2023-03-17T21:29:46.078Z,73.00
2023-03-17T21:32:12.851Z,72.80
2023-03-17T21:34:39.681Z,72.90
2023-03-17T21:37:06.546Z,72.90
2023-03-17T21:39:33.979Z,73.00
2023-03-17T21:42:02.116Z,72.80
2023-03-17T21:44:29.074Z,72.90
2023-03-17T21:46:56.944Z,72.80
2023-03-17T21:49:24.803Z,72.70
2023-03-17T21:51:51.831Z,72.60
2023-03-17T21:54:19.385Z,72.40
2023-03-17T21:56:46.333Z,72.10
2023-03-17T21:59:14.688Z,72.10
2023-03-17T22:01:43.218Z,72.20
2023-03-17T22:04:11.214Z,72.10
2023-03-17T22:06:38.387Z,71.70
2023-03-17T22:09:05.917Z,72.00
2023-03-17T22:11:32.662Z,71.90
2023-03-17T22:13:59.824Z,71.80
2023-03-17T22:16:27.179Z,71.50
2023-03-17T22:18:54.273Z,71.40
2023-03-17T22:21:21.684Z,71.20
2023-03-17T22:23:48.645Z,71.30
2023-03-17T22:26:18.546Z,71.30
2023-03-17T22:28:47.081Z,71.10
2023-03-17T22:31:16.906Z,71.20
2023-03-17T22:33:44.202Z,71.10
2023-03-17T22:36:11.708Z,70.80
2023-03-17T22:38:38.614Z,70.50
2023-03-17T22:41:08.962Z,70.40
2023-03-17T22:43:36.728Z,70.30
2023-03-17T22:46:04.251Z,70.70
2023-03-17T22:48:32.684Z,70.70
2023-03-17T22:51:03.658Z,70.70
2023-03-17T22:53:31.553Z,70.70
2023-03-17T22:55:58.678Z,70.70
2023-03-17T22:58:26.108Z,70.50
2023-03-17T23:00:53.870Z,70.40
2023-03-17T23:03:21.123Z,70.70
2023-03-17T23:05:49.877Z,70.40
2023-03-17T23:08:18.954Z,70.40
2023-03-17T23:10:47.622Z,70.40
2023-03-17T23:13:14.731Z,70.30
2023-03-17T23:15:41.677Z,70.00
2023-03-17T23:18:09.315Z,70.30
2023-03-17T23:20:37.159Z,70.10
2023-03-17T23:23:04.846Z,70.10
2023-03-17T23:25:31.639Z,69.90
2023-03-17T23:27:58.407Z,70.10
2023-03-17T23:30:25.383Z,70.00
2023-03-17T23:32:52.553Z,69.70
2023-03-17T23:35:20.433Z,69.70
2023-03-17T23:37:47.584Z,69.80
2023-03-17T23:40:18.063Z,69.40
2023-03-17T23:42:48.044Z,69.70
2023-03-17T23:45:16.856Z,69.70
2023-03-17T23:47:44.922Z,69.70
2023-03-17T23:50:12.784Z,69.60
2023-03-17T23:52:39.748Z,69.30
2023-03-17T23:55:06.934Z,69.30
2023-03-17T23:57:34.928Z,69.30
